createdAt,value
2019-01-04T00:01:14.244Z,100627.74
2019-01-04T00:03:43.813Z,100619.01
2019-01-04T00:06:13.433Z,100620.51
2019-01-04T00:08:44.483Z,100616.34
2019-01-04T00:11:14.042Z,100616.27
2019-01-04T00:14:03.402Z,100613.56
2019-01-04T00:16:32.981Z,100616.46
2019-01-04T00:19:02.574Z,100619.02
2019-01-04T00:21:33.151Z,100623.66
2019-01-04T00:24:02.735Z,100628.27
2019-01-04T00:26:32.295Z,100628.01
2019-01-04T00:29:01.992Z,100630.42
2019-01-04T00:31:31.552Z,100636.20
2019-01-04T00:34:01.146Z,100636.80
2019-01-04T00:36:30.734Z,100642.74
2019-01-04T00:39:00.341Z,100646.48
2019-01-04T00:41:29.906Z,100642.23
2019-01-04T00:43:59.493Z,100640.63
2019-01-04T00:46:29.097Z,100634.81
2019-01-04T00:48:58.659Z,100639.85
2019-01-04T00:51:28.265Z,100631.67
2019-01-04T00:53:57.859Z,100627.55
2019-01-04T00:56:31.912Z,100627.09
2019-01-04T00:59:06.099Z,100628.84
2019-01-04T01:01:40.117Z,100630.80
2019-01-04T01:04:14.207Z,100626.52
2019-01-04T01:06:48.240Z,100626.30
2019-01-04T01:12:05.149Z,100615.09
2019-01-04T01:14:56.956Z,100616.44
2019-01-04T01:17:31.074Z,100613.47
2019-01-04T01:22:46.470Z,100611.39
2019-01-04T01:25:20.512Z,100608.38
2019-01-04T01:27:54.558Z,100610.52
2019-01-04T01:30:28.600Z,100614.55
2019-01-04T01:33:02.672Z,100614.33
2019-01-04T01:35:36.705Z,100616.81
2019-01-04T01:38:10.775Z,100622.02
2019-01-04T01:40:44.828Z,100618.75
2019-01-04T01:43:18.893Z,100618.16
2019-01-04T01:45:52.914Z,100611.86
2019-01-04T01:48:24.318Z,100609.14
2019-01-04T01:50:58.367Z,100611.97
2019-01-04T01:53:32.412Z,100607.72
2019-01-04T01:56:01.985Z,100602.19
2019-01-04T01:58:31.583Z,100601.38
2019-01-04T02:01:02.821Z,100603.14
2019-01-04T02:03:51.669Z,100598.28
2019-01-04T02:06:21.694Z,100595.66
2019-01-04T02:08:51.270Z,100602.94
2019-01-04T02:11:40.160Z,100601.02
2019-01-04T02:14:09.753Z,100607.58
2019-01-04T02:16:39.360Z,100607.55
2019-01-04T02:19:08.946Z,100610.88
2019-01-04T02:21:38.491Z,100617.86
2019-01-04T02:24:27.405Z,100617.45
2019-01-04T02:26:56.973Z,100622.02
2019-01-04T02:29:26.542Z,100623.27
2019-01-04T02:31:56.150Z,100628.24
2019-01-04T02:34:25.728Z,100631.41
2019-01-04T02:36:55.325Z,100629.90
2019-01-04T02:39:24.908Z,100628.09
2019-01-04T02:41:54.499Z,100625.00
2019-01-04T02:44:24.068Z,100624.42
2019-01-04T02:46:53.679Z,100636.02
2019-01-04T02:49:23.344Z,100643.83
2019-01-04T02:51:52.909Z,100647.90
2019-01-04T02:54:22.518Z,100642.56
2019-01-04T02:56:52.176Z,100638.36
2019-01-04T02:59:21.729Z,100640.20
2019-01-04T03:01:51.418Z,100634.77
2019-01-04T03:04:20.981Z,100631.78
2019-01-04T03:06:50.575Z,100632.54
2019-01-04T03:09:20.492Z,100626.75
2019-01-04T03:11:50.031Z,100619.52
2019-01-04T03:14:21.113Z,100621.55
2019-01-04T03:16:50.752Z,100614.11
2019-01-04T03:19:20.313Z,100607.38
2019-01-04T03:21:49.893Z,100613.14
2019-01-04T03:24:19.527Z,100606.56
2019-01-04T03:26:49.115Z,100606.11
2019-01-04T03:29:18.675Z,100608.98
2019-01-04T03:31:48.301Z,100615.79
2019-01-04T03:34:17.977Z,100621.89
2019-01-04T03:36:47.561Z,100620.84
2019-01-04T03:39:17.494Z,100619.85
2019-01-04T03:41:47.825Z,100622.78
2019-01-04T03:44:17.431Z,100617.82
2019-01-04T03:46:47.360Z,100612.73
2019-01-04T03:49:16.933Z,100604.14
2019-01-04T03:51:46.498Z,100607.31
2019-01-04T03:54:16.125Z,100595.07
2019-01-04T03:56:45.712Z,100590.58
2019-01-04T03:59:15.295Z,100597.60
2019-01-04T04:02:04.180Z,100584.66
2019-01-04T04:04:33.752Z,100589.09
2019-01-04T04:07:03.353Z,100597.34
2019-01-04T04:09:32.942Z,100597.84
2019-01-04T04:12:02.519Z,100599.92
2019-01-04T04:14:32.156Z,100610.97
2019-01-04T04:17:01.844Z,100606.52
2019-01-04T04:19:31.462Z,100604.72
2019-01-04T04:22:01.030Z,100606.17
2019-01-04T04:24:30.627Z,100601.92
2019-01-04T04:27:00.231Z,100609.31
2019-01-04T04:29:29.879Z,100620.27
2019-01-04T04:31:59.509Z,100614.25
2019-01-04T04:34:29.173Z,100614.95
2019-01-04T04:36:58.748Z,100625.56
2019-01-04T04:39:28.348Z,100617.08
2019-01-04T04:41:58.106Z,100617.73
2019-01-04T04:44:27.651Z,100614.80
2019-01-04T04:46:57.256Z,100611.03
2019-01-04T04:49:26.831Z,100610.87
2019-01-04T04:51:56.442Z,100609.83
2019-01-04T04:54:26.076Z,100608.79
2019-01-04T04:56:55.643Z,100610.84
2019-01-04T04:59:25.218Z,100606.11
2019-01-04T05:02:14.090Z,100601.22
2019-01-04T05:04:43.659Z,100598.50
2019-01-04T05:07:13.251Z,100603.98
2019-01-04T05:09:42.873Z,100603.64
2019-01-04T05:12:12.475Z,100605.88
2019-01-04T05:14:42.070Z,100614.59
2019-01-04T05:17:11.692Z,100614.70
2019-01-04T05:20:00.558Z,100611.67
2019-01-04T05:22:30.243Z,100618.59
2019-01-04T05:24:59.830Z,100614.88
2019-01-04T05:27:29.381Z,100612.83
2019-01-04T05:29:59.021Z,100616.09
2019-01-04T05:32:28.625Z,100605.12
2019-01-04T05:34:58.186Z,100614.50
2019-01-04T05:37:27.792Z,100612.70
2019-01-04T05:39:57.449Z,100604.89
2019-01-04T05:42:27.970Z,100607.06
2019-01-04T05:45:10.000Z,100610.53
2019-01-04T05:47:39.585Z,100609.91
2019-01-04T05:50:09.190Z,100611.91
2019-01-04T05:52:38.787Z,100612.67
2019-01-04T05:55:08.448Z,100618.77
2019-01-04T05:57:38.048Z,100608.70
2019-01-04T06:00:10.803Z,100597.09
2019-01-04T06:02:46.222Z,100584.73
2019-01-04T06:05:15.829Z,100582.86
2019-01-04T06:07:45.492Z,100583.98
2019-01-04T06:10:15.062Z,100585.58
2019-01-04T06:12:44.646Z,100581.78
2019-01-04T06:15:14.240Z,100570.65
2019-01-04T06:20:12.938Z,100582.09
2019-01-04T06:22:42.628Z,100577.33
2019-01-04T06:25:12.065Z,100575.41
2019-01-04T06:27:41.644Z,100580.55
2019-01-04T06:30:11.282Z,100580.36
2019-01-04T06:32:40.890Z,100584.27
2019-01-04T06:35:10.502Z,100589.22
2019-01-04T06:37:40.105Z,100589.37
2019-01-04T06:40:11.219Z,100586.16
2019-01-04T06:42:40.798Z,100595.11
2019-01-04T06:45:10.598Z,100602.41
2019-01-04T06:47:40.307Z,100602.62
2019-01-04T06:50:10.577Z,100598.17
2019-01-04T06:52:40.394Z,100592.41
2019-01-04T06:55:14.432Z,100586.02
2019-01-04T06:58:03.297Z,100584.09
2019-01-04T07:00:32.906Z,100588.88
2019-01-04T07:03:09.110Z,100595.19
2019-01-04T07:05:38.715Z,100594.27
2019-01-04T07:08:08.271Z,100608.02
2019-01-04T07:10:46.685Z,100613.36
2019-01-04T07:13:21.980Z,100614.58
2019-01-04T07:15:51.587Z,100609.05
2019-01-04T07:18:21.657Z,100610.94
2019-01-04T07:20:51.267Z,100606.85
2019-01-04T07:23:20.840Z,100607.59
2019-01-04T07:25:50.467Z,100605.06
2019-01-04T07:28:20.073Z,100616.81
2019-01-04T07:30:49.681Z,100624.73
2019-01-04T07:33:19.271Z,100635.04
2019-01-04T07:35:48.874Z,100633.80
2019-01-04T07:38:18.481Z,100634.69
2019-01-04T07:40:48.156Z,100636.00
2019-01-04T07:43:17.610Z,100648.20
2019-01-04T07:45:47.238Z,100651.89
2019-01-04T07:48:16.865Z,100647.56
2019-01-04T07:50:46.432Z,100649.12
2019-01-04T07:53:16.000Z,100648.64
2019-01-04T07:55:45.615Z,100649.88
2019-01-04T07:58:15.176Z,100645.44
2019-01-04T08:00:44.780Z,100647.13
2019-01-04T08:03:33.667Z,100645.08
2019-01-04T08:06:03.362Z,100640.70
2019-01-04T08:08:32.935Z,100645.58
2019-01-04T08:11:02.527Z,100640.36
2019-01-04T08:13:32.205Z,100647.55
2019-01-04T08:16:01.772Z,100648.69
2019-01-04T08:18:31.351Z,100649.00
2019-01-04T08:21:00.927Z,100647.86
2019-01-04T08:23:30.518Z,100655.64
2019-01-04T08:26:00.139Z,100659.22
2019-01-04T08:28:29.724Z,100664.81
2019-01-04T08:30:59.301Z,100652.98
2019-01-04T08:33:28.912Z,100653.20
2019-01-04T08:35:58.498Z,100653.70
2019-01-04T08:38:28.086Z,100657.48
2019-01-04T08:40:57.752Z,100657.63
2019-01-04T08:43:27.394Z,100653.97
2019-01-04T08:45:57.237Z,100651.19
2019-01-04T08:48:26.845Z,100649.13
2019-01-04T08:50:56.449Z,100650.56
2019-01-04T08:53:30.462Z,100651.61
2019-01-04T08:56:00.070Z,100655.45
2019-01-04T08:58:29.637Z,100658.61
2019-01-04T09:00:59.234Z,100658.52
2019-01-04T09:03:28.825Z,100661.45
2019-01-04T09:05:58.434Z,100652.38
2019-01-04T09:08:47.313Z,100649.20
2019-01-04T09:11:16.879Z,100644.88
2019-01-04T09:13:46.465Z,100645.09
2019-01-04T09:16:16.050Z,100649.05
2019-01-04T09:18:45.619Z,100641.52
2019-01-04T09:21:15.190Z,100642.22
2019-01-04T09:23:44.821Z,100648.03
2019-01-04T09:26:14.402Z,100652.23
2019-01-04T09:28:43.963Z,100641.77
2019-01-04T09:31:13.605Z,100643.56
2019-01-04T09:33:43.176Z,100635.05
2019-01-04T09:36:12.750Z,100630.56
2019-01-04T09:38:42.359Z,100635.55
2019-01-04T09:41:16.399Z,100638.17
2019-01-04T09:43:46.054Z,100649.10
2019-01-04T09:46:15.688Z,100644.47
2019-01-04T09:48:45.301Z,100630.23
2019-01-04T09:51:14.902Z,100611.91
2019-01-04T09:53:44.474Z,100592.38
2019-01-04T09:56:14.046Z,100589.59
2019-01-04T09:58:43.618Z,100578.02
2019-01-04T10:01:13.230Z,100569.36
2019-01-04T10:03:42.812Z,100560.45
2019-01-04T10:06:12.451Z,100559.62
2019-01-04T10:08:44.949Z,100555.95
2019-01-04T10:11:13.404Z,100554.33
2019-01-04T10:13:43.007Z,100544.78
2019-01-04T10:16:12.616Z,100538.20
2019-01-04T10:18:42.078Z,100530.23
2019-01-04T10:21:11.742Z,100521.92
2019-01-04T10:24:00.664Z,100513.73
2019-01-04T10:26:30.234Z,100498.42
2019-01-04T10:28:59.807Z,100499.19
2019-01-04T10:31:29.430Z,100498.34
2019-01-04T10:33:58.994Z,100493.58
2019-01-04T10:36:28.575Z,100491.30
2019-01-04T10:38:58.308Z,100475.47
2019-01-04T10:41:27.877Z,100474.03
2019-01-04T10:43:57.477Z,100476.05
2019-01-04T10:46:27.067Z,100473.33
2019-01-04T10:48:56.641Z,100471.86
2019-01-04T10:51:26.273Z,100468.41
2019-01-04T10:53:55.853Z,100467.27
2019-01-04T10:56:25.434Z,100470.66
2019-01-04T10:58:55.059Z,100462.38
2019-01-04T11:01:24.718Z,100453.05
2019-01-04T11:03:54.319Z,100450.43
2019-01-04T11:06:23.886Z,100445.50
2019-01-04T11:08:53.534Z,100448.90
2019-01-04T11:11:23.113Z,100444.56
2019-01-04T11:13:52.709Z,100454.81
2019-01-04T11:16:22.295Z,100464.64
2019-01-04T11:19:11.167Z,100451.75
2019-01-04T11:21:41.095Z,100452.68
2019-01-04T11:24:15.155Z,100446.76
2019-01-04T11:26:49.916Z,100461.59
2019-01-04T11:29:23.948Z,100448.44
2019-01-04T11:37:19.207Z,100436.63
2019-01-04T11:39:53.225Z,100435.45
2019-01-04T11:42:45.124Z,100423.30
2019-01-04T11:45:19.177Z,100424.58
2019-01-04T11:48:11.313Z,100425.89
2019-01-04T11:50:45.367Z,100418.73
2019-01-04T11:53:17.147Z,100417.03
2019-01-04T11:55:46.742Z,100413.09
2019-01-04T11:58:16.342Z,100402.14
2019-01-04T12:00:45.956Z,100405.89
2019-01-04T12:03:15.551Z,100393.94
2019-01-04T12:05:45.135Z,100389.64
2019-01-04T12:08:14.740Z,100404.91
2019-01-04T12:10:44.374Z,100403.69
2019-01-04T12:13:13.955Z,100405.02
2019-01-04T12:15:43.541Z,100398.42
2019-01-04T12:18:13.104Z,100398.72
2019-01-04T12:20:45.506Z,100402.34
2019-01-04T12:23:14.017Z,100398.00
2019-01-04T12:25:43.652Z,100402.58
2019-01-04T12:28:13.173Z,100403.63
2019-01-04T12:30:42.814Z,100410.45
2019-01-04T12:33:12.357Z,100402.05
2019-01-04T12:35:41.921Z,100385.92
2019-01-04T12:38:11.556Z,100382.27
2019-01-04T12:40:41.116Z,100375.76
2019-01-04T12:43:10.723Z,100371.65
2019-01-04T12:45:40.330Z,100371.89
2019-01-04T12:48:09.919Z,100373.59
2019-01-04T12:50:39.474Z,100373.69
2019-01-04T12:53:09.070Z,100368.15
2019-01-04T12:55:38.621Z,100370.92
2019-01-04T12:58:08.198Z,100376.37
2019-01-04T13:00:37.779Z,100387.58
2019-01-04T13:03:07.351Z,100390.23
2019-01-04T13:05:36.934Z,100385.91
2019-01-04T13:08:06.521Z,100393.17
2019-01-04T13:10:36.126Z,100392.63
2019-01-04T13:13:05.669Z,100390.68
2019-01-04T13:15:35.377Z,100388.77
2019-01-04T13:18:04.950Z,100390.69
2019-01-04T13:20:34.553Z,100389.53
2019-01-04T13:23:04.158Z,100386.45
2019-01-04T13:25:33.740Z,100387.95
2019-01-04T13:28:03.293Z,100382.98
2019-01-04T13:30:32.889Z,100375.26
2019-01-04T13:33:02.450Z,100368.53
2019-01-04T13:35:32.069Z,100359.84
2019-01-04T13:38:01.717Z,100359.57
2019-01-04T13:40:31.286Z,100358.33
2019-01-04T13:43:00.848Z,100355.53
2019-01-04T13:45:30.743Z,100362.00
2019-01-04T13:48:01.441Z,100353.06
2019-01-04T13:50:31.043Z,100354.56
2019-01-04T13:53:00.624Z,100348.94
2019-01-04T13:55:30.265Z,100341.50
2019-01-04T13:57:59.868Z,100332.55
2019-01-04T14:00:29.466Z,100335.56
2019-01-04T14:02:59.082Z,100333.27
2019-01-04T14:05:28.646Z,100333.14
2019-01-04T14:07:58.215Z,100341.59
2019-01-04T14:10:27.801Z,100339.65
2019-01-04T14:12:57.372Z,100344.77
2019-01-04T14:15:26.987Z,100332.77
2019-01-04T14:17:56.545Z,100329.28
2019-01-04T14:20:26.099Z,100326.22
2019-01-04T14:22:58.220Z,100326.23
2019-01-04T14:25:27.778Z,100328.30
2019-01-04T14:27:57.361Z,100332.16
2019-01-04T14:30:27.018Z,100330.53
2019-01-04T14:32:56.623Z,100336.06
2019-01-04T14:35:26.212Z,100332.93
2019-01-04T14:37:55.820Z,100331.92
2019-01-04T14:40:25.679Z,100322.25
2019-01-04T14:42:55.297Z,100311.34
2019-01-04T14:45:24.993Z,100316.62
2019-01-04T14:47:54.600Z,100307.20
2019-01-04T14:50:24.145Z,100300.83
2019-01-04T14:52:53.726Z,100295.70
2019-01-04T14:55:23.285Z,100287.83
2019-01-04T14:57:52.868Z,100265.33
2019-01-04T15:00:22.859Z,100254.73
2019-01-04T15:02:52.424Z,100254.81
2019-01-04T15:05:23.510Z,100249.36
2019-01-04T15:07:54.854Z,100247.94
2019-01-04T15:10:43.723Z,100245.35
2019-01-04T15:13:13.301Z,100247.89
2019-01-04T15:15:42.911Z,100243.17
2019-01-04T15:18:12.495Z,100237.88
2019-01-04T15:20:42.126Z,100245.39
2019-01-04T15:23:11.735Z,100258.08
2019-01-04T15:25:41.349Z,100259.38
2019-01-04T15:28:11.051Z,100256.08
2019-01-04T15:30:40.634Z,100256.39
2019-01-04T15:33:10.195Z,100267.91
2019-01-04T15:35:39.856Z,100266.02
2019-01-04T15:38:09.456Z,100256.77
2019-01-04T15:40:39.579Z,100267.92
2019-01-04T15:43:09.229Z,100271.19
2019-01-04T15:45:38.830Z,100272.91
2019-01-04T15:48:08.423Z,100274.63
2019-01-04T15:50:38.064Z,100264.70
2019-01-04T15:53:07.632Z,100258.70
2019-01-04T15:55:37.219Z,100253.64
2019-01-04T15:58:06.801Z,100248.33
2019-01-04T16:00:36.366Z,100243.38
2019-01-04T16:03:05.965Z,100245.33
2019-01-04T16:05:35.960Z,100243.78
2019-01-04T16:08:05.524Z,100245.50
2019-01-04T16:10:35.090Z,100249.30
2019-01-04T16:13:04.680Z,100240.14
2019-01-04T16:15:34.283Z,100247.96
2019-01-04T16:18:03.911Z,100250.41
2019-01-04T16:20:33.933Z,100261.70
2019-01-04T16:23:03.517Z,100243.83
2019-01-04T16:25:33.103Z,100243.85
2019-01-04T16:28:02.704Z,100247.30
2019-01-04T16:30:32.378Z,100246.09
2019-01-04T16:33:21.256Z,100255.46
2019-01-04T16:35:50.852Z,100264.16
2019-01-04T16:38:20.415Z,100273.80
2019-01-04T16:40:50.204Z,100272.56
2019-01-04T16:43:19.760Z,100274.47
2019-01-04T16:45:49.326Z,100272.73
2019-01-04T16:48:18.921Z,100290.88
2019-01-04T16:50:48.513Z,100304.80
2019-01-04T16:53:18.094Z,100296.12
2019-01-04T16:55:47.703Z,100304.38
2019-01-04T16:58:17.265Z,100303.80
2019-01-04T17:00:46.863Z,100306.88
2019-01-04T17:03:16.467Z,100302.36
2019-01-04T17:05:46.053Z,100313.05
2019-01-04T17:08:15.651Z,100312.98
2019-01-04T17:10:45.276Z,100313.78
2019-01-04T17:13:14.817Z,100311.79
2019-01-04T17:15:44.370Z,100313.86
2019-01-04T17:18:13.986Z,100311.83
2019-01-04T17:20:43.573Z,100317.55
2019-01-04T17:23:13.145Z,100322.66
2019-01-04T17:25:42.753Z,100324.78
2019-01-04T17:28:12.386Z,100322.82
2019-01-04T17:31:01.270Z,100338.44
2019-01-04T17:33:30.866Z,100333.67
2019-01-04T17:36:19.718Z,100331.66
2019-01-04T17:38:49.278Z,100324.32
2019-01-04T17:41:19.921Z,100325.69
2019-01-04T17:43:49.526Z,100319.58
2019-01-04T17:46:19.155Z,100313.86
2019-01-04T17:48:48.733Z,100309.11
2019-01-04T17:51:18.327Z,100307.91
2019-01-04T17:53:47.935Z,100305.21
2019-01-04T17:56:17.482Z,100302.86
2019-01-04T17:58:52.813Z,100303.72
2019-01-04T18:01:22.338Z,100304.14
2019-01-04T18:03:51.922Z,100303.34
2019-01-04T18:06:21.626Z,100301.27
2019-01-04T18:08:51.214Z,100291.77
2019-01-04T18:11:20.784Z,100280.84
2019-01-04T18:13:50.353Z,100275.50
2019-01-04T18:16:19.984Z,100277.14
2019-01-04T18:18:49.541Z,100288.15
2019-01-04T18:21:19.118Z,100286.66
2019-01-04T18:23:48.698Z,100281.83
2019-01-04T18:26:24.205Z,100276.13
2019-01-04T18:28:49.624Z,100275.30
2019-01-04T18:31:19.185Z,100269.09
2019-01-04T18:33:48.769Z,100260.60
2019-01-04T18:36:24.319Z,100217.39
2019-01-04T18:39:13.150Z,100269.76
2019-01-04T18:41:44.291Z,100268.76
2019-01-04T18:44:13.860Z,100275.25
2019-01-04T18:46:43.439Z,100269.76
2019-01-04T18:49:13.088Z,100275.05
2019-01-04T18:51:42.681Z,100276.82
2019-01-04T18:54:12.242Z,100279.70
2019-01-04T18:56:41.822Z,100289.39
2019-01-04T18:59:12.516Z,100293.20
2019-01-04T19:01:42.161Z,100280.09
2019-01-04T19:04:11.770Z,100280.25
2019-01-04T19:06:41.412Z,100281.70
2019-01-04T19:09:10.948Z,100273.80
2019-01-04T19:11:40.545Z,100270.72
2019-01-04T19:14:10.133Z,100272.11
2019-01-04T19:16:39.715Z,100278.17
2019-01-04T19:19:09.322Z,100278.52
2019-01-04T19:21:38.906Z,100272.33
2019-01-04T19:24:08.440Z,100265.72
2019-01-04T19:26:38.045Z,100251.74
2019-01-04T19:29:07.596Z,100236.97
2019-01-04T19:31:37.173Z,100233.72
2019-01-04T19:34:06.764Z,100234.88
2019-01-04T19:36:36.367Z,100244.52
2019-01-04T19:39:07.800Z,100254.14
2019-01-04T19:41:37.408Z,100253.64
2019-01-04T19:44:07.668Z,100250.14
2019-01-04T19:46:37.245Z,100244.37
2019-01-04T19:49:06.853Z,100248.27
2019-01-04T19:51:36.519Z,100236.80
2019-01-04T19:54:06.120Z,100240.46
2019-01-04T19:56:36.134Z,100234.39
2019-01-04T19:59:11.354Z,100226.55
2019-01-04T20:01:40.944Z,100226.58
2019-01-04T20:04:10.707Z,100225.45
2019-01-04T20:06:46.349Z,100225.92
2019-01-04T20:09:22.005Z,100227.89
2019-01-04T20:11:57.640Z,100230.02
2019-01-04T20:14:33.319Z,100235.80
2019-01-04T20:17:04.497Z,100231.33
2019-01-04T20:19:36.496Z,100233.08
2019-01-04T20:22:07.675Z,100226.91
2019-01-04T20:24:38.857Z,100226.02
2019-01-04T20:27:10.082Z,100218.68
2019-01-04T20:29:41.323Z,100225.95
2019-01-04T20:32:12.505Z,100228.83
2019-01-04T20:34:43.644Z,100225.53
2019-01-04T20:37:14.839Z,100226.36
2019-01-04T20:39:46.002Z,100232.70
2019-01-04T20:42:17.280Z,100237.41
2019-01-04T20:44:49.261Z,100235.22
2019-01-04T20:47:32.576Z,100225.38
2019-01-04T20:50:03.799Z,100234.34
2019-01-04T20:52:34.980Z,100228.52
2019-01-04T20:55:25.441Z,100241.33
2019-01-04T20:57:56.627Z,100239.52
2019-01-04T21:00:29.313Z,100231.87
2019-01-04T21:03:00.570Z,100236.53
2019-01-04T21:05:31.751Z,100243.73
2019-01-04T21:08:02.899Z,100239.59
2019-01-04T21:10:34.488Z,100240.94
2019-01-04T21:13:05.663Z,100232.21
2019-01-04T21:15:36.838Z,100238.52
2019-01-04T21:18:08.018Z,100239.47
2019-01-04T21:20:39.173Z,100243.59
2019-01-04T21:23:10.350Z,100246.42
2019-01-04T21:25:41.533Z,100249.98
2019-01-04T21:28:12.703Z,100247.73
2019-01-04T21:30:43.957Z,100245.98
2019-01-04T21:33:15.139Z,100242.61
2019-01-04T21:35:46.331Z,100243.55
2019-01-04T21:38:17.495Z,100245.66
2019-01-04T21:40:48.701Z,100240.36
2019-01-04T21:43:19.844Z,100245.06
2019-01-04T21:45:51.020Z,100248.81
2019-01-04T21:48:22.238Z,100255.38
2019-01-04T21:50:53.407Z,100252.86
2019-01-04T21:53:24.582Z,100258.13
2019-01-04T21:55:55.756Z,100264.97
2019-01-04T21:58:26.930Z,100270.83
2019-01-04T22:00:58.075Z,100271.56
2019-01-04T22:03:29.269Z,100264.05
2019-01-04T22:06:00.462Z,100264.13
2019-01-04T22:08:50.961Z,100257.45
2019-01-04T22:11:41.416Z,100259.34
2019-01-04T22:14:12.590Z,100258.28
2019-01-04T22:16:43.761Z,100254.84
2019-01-04T22:19:14.915Z,100257.00
2019-01-04T22:21:46.097Z,100259.73
2019-01-04T22:24:17.255Z,100255.91
2019-01-04T22:26:51.281Z,100253.15
2019-01-04T22:29:22.484Z,100254.36
2019-01-04T22:31:53.642Z,100246.67
2019-01-04T22:34:24.799Z,100245.19
2019-01-04T22:36:56.233Z,100240.20
2019-01-04T22:39:27.402Z,100234.93
2019-01-04T22:41:58.565Z,100242.53
2019-01-04T22:44:29.739Z,100245.06
2019-01-04T22:47:02.617Z,100246.58
2019-01-04T22:49:33.815Z,100241.51
2019-01-04T22:52:04.995Z,100241.09
2019-01-04T22:54:36.180Z,100238.69
2019-01-04T22:57:07.363Z,100238.53
2019-01-04T22:59:57.826Z,100233.91
2019-01-04T23:02:28.985Z,100236.84
2019-01-04T23:05:00.176Z,100238.51
2019-01-04T23:10:17.880Z,100231.08
2019-01-04T23:12:49.047Z,100229.27
2019-01-04T23:15:20.199Z,100228.63
2019-01-04T23:17:51.415Z,100230.34
2019-01-04T23:20:22.563Z,100229.12
2019-01-04T23:22:53.707Z,100225.70
2019-01-04T23:25:25.898Z,100225.55
2019-01-04T23:27:57.089Z,100225.05
2019-01-04T23:30:28.272Z,100212.38
2019-01-04T23:36:05.634Z,100211.90
2019-01-04T23:38:36.789Z,100220.34
2019-01-04T23:41:07.977Z,100215.69
2019-01-04T23:43:39.199Z,100209.20
2019-01-04T23:46:10.377Z,100213.20
2019-01-04T23:48:42.831Z,100216.61
2019-01-04T23:51:14.300Z,100214.58
2019-01-04T23:53:45.467Z,100218.77
2019-01-04T23:56:16.636Z,100221.23
2019-01-04T23:58:47.814Z,100214.86
